sensor_id;sensor_type;location;lat;lon;timestamp;temperature;humidity
46508;DHT22;32223;53.654;10.014;2022-10-16T00:01:45;13.40;99.90
46508;DHT22;32223;53.654;10.014;2022-10-16T00:04:11;13.40;99.90
46508;DHT22;32223;53.654;10.014;2022-10-16T00:06:37;13.40;99.90
46508;DHT22;32223;53.654;10.014;2022-10-16T00:09:02;13.40;99.90
46508;DHT22;32223;53.654;10.014;2022-10-16T00:11:29;13.50;99.90
46508;DHT22;32223;53.654;10.014;2022-10-16T00:13:57;13.50;99.90
46508;DHT22;32223;53.654;10.014;2022-10-16T00:16:22;13.40;99.90
46508;DHT22;32223;53.654;10.014;2022-10-16T00:18:48;13.50;99.90
46508;DHT22;32223;53.654;10.014;2022-10-16T00:21:14;13.60;99.90
46508;DHT22;32223;53.654;10.014;2022-10-16T00:23:40;13.50;99.90
46508;DHT22;32223;53.654;10.014;2022-10-16T00:26:07;13.50;99.90
46508;DHT22;32223;53.654;10.014;2022-10-16T00:28:33;13.50;99.90
46508;DHT22;32223;53.654;10.014;2022-10-16T00:31:02;13.50;99.90
46508;DHT22;32223;53.654;10.014;2022-10-16T00:33:27;13.50;99.90
46508;DHT22;32223;53.654;10.014;2022-10-16T00:35:53;13.50;99.90
46508;DHT22;32223;53.654;10.014;2022-10-16T00:38:18;13.50;99.90
46508;DHT22;32223;53.654;10.014;2022-10-16T00:40:44;13.50;99.90
46508;DHT22;32223;53.654;10.014;2022-10-16T00:43:13;13.60;99.90
46508;DHT22;32223;53.654;10.014;2022-10-16T00:45:39;13.60;99.90
46508;DHT22;32223;53.654;10.014;2022-10-16T00:48:06;13.60;99.90
46508;DHT22;32223;53.654;10.014;2022-10-16T00:50:35;13.70;99.90
46508;DHT22;32223;53.654;10.014;2022-10-16T00:53:01;13.70;99.90
46508;DHT22;32223;53.654;10.014;2022-10-16T00:55:27;13.70;99.90
46508;DHT22;32223;53.654;10.014;2022-10-16T00:57:55;13.70;99.90
46508;DHT22;32223;53.654;10.014;2022-10-16T01:00:22;13.70;99.90
46508;DHT22;32223;53.654;10.014;2022-10-16T01:02:55;13.80;99.90
46508;DHT22;32223;53.654;10.014;2022-10-16T01:05:21;13.80;99.90
46508;DHT22;32223;53.654;10.014;2022-10-16T01:12:40;13.60;99.90
46508;DHT22;32223;53.654;10.014;2022-10-16T01:15:11;13.60;99.90
46508;DHT22;32223;53.654;10.014;2022-10-16T01:17:41;13.50;99.90
46508;DHT22;32223;53.654;10.014;2022-10-16T01:22:43;13.50;99.90
46508;DHT22;32223;53.654;10.014;2022-10-16T01:25:19;13.50;99.90
46508;DHT22;32223;53.654;10.014;2022-10-16T01:27:48;13.50;99.90
46508;DHT22;32223;53.654;10.014;2022-10-16T01:30:16;13.50;99.90
46508;DHT22;32223;53.654;10.014;2022-10-16T01:32:45;13.50;99.90
46508;DHT22;32223;53.654;10.014;2022-10-16T01:35:18;13.40;99.90
46508;DHT22;32223;53.654;10.014;2022-10-16T01:37:48;13.40;99.90
46508;DHT22;32223;53.654;10.014;2022-10-16T01:40:16;13.40;99.90
46508;DHT22;32223;53.654;10.014;2022-10-16T01:42:45;13.40;99.90
46508;DHT22;32223;53.654;10.014;2022-10-16T01:45:12;13.30;99.90
46508;DHT22;32223;53.654;10.014;2022-10-16T01:47:39;13.30;99.90
46508;DHT22;32223;53.654;10.014;2022-10-16T01:50:05;13.20;99.90
46508;DHT22;32223;53.654;10.014;2022-10-16T01:52:32;13.20;99.90
46508;DHT22;32223;53.654;10.014;2022-10-16T01:54:59;13.20;99.90
46508;DHT22;32223;53.654;10.014;2022-10-16T01:57:26;13.10;99.90
46508;DHT22;32223;53.654;10.014;2022-10-16T01:59:53;13.00;99.90
46508;DHT22;32223;53.654;10.014;2022-10-16T02:02:20;13.10;99.90
46508;DHT22;32223;53.654;10.014;2022-10-16T02:04:51;13.10;99.90
46508;DHT22;32223;53.654;10.014;2022-10-16T02:07:17;13.10;99.90
46508;DHT22;32223;53.654;10.014;2022-10-16T02:09:42;13.10;99.90
46508;DHT22;32223;53.654;10.014;2022-10-16T02:12:10;13.00;99.90
46508;DHT22;32223;53.654;10.014;2022-10-16T02:14:37;13.10;99.90
46508;DHT22;32223;53.654;10.014;2022-10-16T02:17:09;13.00;99.90
46508;DHT22;32223;53.654;10.014;2022-10-16T02:19:35;13.00;99.90
46508;DHT22;32223;53.654;10.014;2022-10-16T02:22:02;13.00;99.90
46508;DHT22;32223;53.654;10.014;2022-10-16T02:24:38;12.90;99.90
46508;DHT22;32223;53.654;10.014;2022-10-16T02:29:50;12.90;99.90
46508;DHT22;32223;53.654;10.014;2022-10-16T02:32:19;12.80;99.90
46508;DHT22;32223;53.654;10.014;2022-10-16T02:34:47;12.80;99.90
46508;DHT22;32223;53.654;10.014;2022-10-16T02:37:13;12.90;99.90
46508;DHT22;32223;53.654;10.014;2022-10-16T02:39:39;12.90;99.90
46508;DHT22;32223;53.654;10.014;2022-10-16T02:42:09;12.80;99.90
46508;DHT22;32223;53.654;10.014;2022-10-16T02:44:35;12.80;99.90
46508;DHT22;32223;53.654;10.014;2022-10-16T02:47:00;12.80;99.90
46508;DHT22;32223;53.654;10.014;2022-10-16T02:49:26;12.80;99.90
46508;DHT22;32223;53.654;10.014;2022-10-16T02:51:51;12.80;99.90
46508;DHT22;32223;53.654;10.014;2022-10-16T02:54:16;12.80;99.90
46508;DHT22;32223;53.654;10.014;2022-10-16T02:56:42;12.80;99.90
46508;DHT22;32223;53.654;10.014;2022-10-16T02:59:07;12.80;99.90
46508;DHT22;32223;53.654;10.014;2022-10-16T03:01:33;12.70;99.90
46508;DHT22;32223;53.654;10.014;2022-10-16T03:03:59;12.70;99.90
46508;DHT22;32223;53.654;10.014;2022-10-16T03:06:24;12.60;99.90
46508;DHT22;32223;53.654;10.014;2022-10-16T03:08:50;12.60;99.90
46508;DHT22;32223;53.654;10.014;2022-10-16T03:11:15;12.60;99.90
46508;DHT22;32223;53.654;10.014;2022-10-16T03:13:41;12.60;99.90
46508;DHT22;32223;53.654;10.014;2022-10-16T03:16:06;12.50;99.90
46508;DHT22;32223;53.654;10.014;2022-10-16T03:18:32;12.40;99.90
46508;DHT22;32223;53.654;10.014;2022-10-16T03:20:57;12.40;99.90
46508;DHT22;32223;53.654;10.014;2022-10-16T03:23:23;12.30;99.90
46508;DHT22;32223;53.654;10.014;2022-10-16T03:25:48;12.30;99.90
46508;DHT22;32223;53.654;10.014;2022-10-16T03:28:13;12.30;99.90
46508;DHT22;32223;53.654;10.014;2022-10-16T03:30:39;12.40;99.90
46508;DHT22;32223;53.654;10.014;2022-10-16T03:33:05;12.30;99.90
46508;DHT22;32223;53.654;10.014;2022-10-16T03:35:30;12.30;99.90
46508;DHT22;32223;53.654;10.014;2022-10-16T03:37:56;12.40;99.90
46508;DHT22;32223;53.654;10.014;2022-10-16T03:40:21;12.30;99.90
46508;DHT22;32223;53.654;10.014;2022-10-16T03:42:47;12.40;99.90
46508;DHT22;32223;53.654;10.014;2022-10-16T03:45:12;12.40;99.90
46508;DHT22;32223;53.654;10.014;2022-10-16T03:47:38;12.40;99.90
46508;DHT22;32223;53.654;10.014;2022-10-16T03:50:04;12.40;99.90
46508;DHT22;32223;53.654;10.014;2022-10-16T03:52:29;12.40;99.90
46508;DHT22;32223;53.654;10.014;2022-10-16T03:54:55;12.40;99.90
46508;DHT22;32223;53.654;10.014;2022-10-16T03:57:21;12.40;99.90
46508;DHT22;32223;53.654;10.014;2022-10-16T03:59:46;12.50;99.90
46508;DHT22;32223;53.654;10.014;2022-10-16T04:02:12;12.50;99.90
46508;DHT22;32223;53.654;10.014;2022-10-16T04:04:38;12.50;99.90
46508;DHT22;32223;53.654;10.014;2022-10-16T04:07:03;12.50;99.90
46508;DHT22;32223;53.654;10.014;2022-10-16T04:09:29;12.50;99.90
46508;DHT22;32223;53.654;10.014;2022-10-16T04:11:54;12.50;99.90
46508;DHT22;32223;53.654;10.014;2022-10-16T04:14:20;12.50;99.90
46508;DHT22;32223;53.654;10.014;2022-10-16T04:16:45;12.50;99.90
46508;DHT22;32223;53.654;10.014;2022-10-16T04:19:11;12.50;99.90
46508;DHT22;32223;53.654;10.014;2022-10-16T04:21:36;12.50;99.90
46508;DHT22;32223;53.654;10.014;2022-10-16T04:24:02;12.50;99.90
46508;DHT22;32223;53.654;10.014;2022-10-16T04:26:28;12.40;99.90
46508;DHT22;32223;53.654;10.014;2022-10-16T04:28:53;12.40;99.90
46508;DHT22;32223;53.654;10.014;2022-10-16T04:31:19;12.40;99.90
46508;DHT22;32223;53.654;10.014;2022-10-16T04:33:44;12.40;99.90
46508;DHT22;32223;53.654;10.014;2022-10-16T04:36:10;12.40;99.90
46508;DHT22;32223;53.654;10.014;2022-10-16T04:38:35;12.40;99.90
46508;DHT22;32223;53.654;10.014;2022-10-16T04:41:03;12.40;99.90
46508;DHT22;32223;53.654;10.014;2022-10-16T04:43:28;12.40;99.90
46508;DHT22;32223;53.654;10.014;2022-10-16T04:45:54;12.30;99.90
46508;DHT22;32223;53.654;10.014;2022-10-16T04:48:20;12.30;99.90
46508;DHT22;32223;53.654;10.014;2022-10-16T04:50:45;12.40;99.90
46508;DHT22;32223;53.654;10.014;2022-10-16T04:53:11;12.30;99.90
46508;DHT22;32223;53.654;10.014;2022-10-16T04:55:36;12.30;99.90
46508;DHT22;32223;53.654;10.014;2022-10-16T04:58:03;12.30;99.90
46508;DHT22;32223;53.654;10.014;2022-10-16T05:00:29;12.40;99.90
46508;DHT22;32223;53.654;10.014;2022-10-16T05:02:54;12.40;99.90
46508;DHT22;32223;53.654;10.014;2022-10-16T05:05:20;12.40;99.90
46508;DHT22;32223;53.654;10.014;2022-10-16T05:07:46;12.40;99.90
46508;DHT22;32223;53.654;10.014;2022-10-16T05:10:11;12.40;99.90
46508;DHT22;32223;53.654;10.014;2022-10-16T05:12:37;12.40;99.90
46508;DHT22;32223;53.654;10.014;2022-10-16T05:15:03;12.40;99.90
46508;DHT22;32223;53.654;10.014;2022-10-16T05:17:28;12.40;99.90
46508;DHT22;32223;53.654;10.014;2022-10-16T05:19:54;12.40;99.90
46508;DHT22;32223;53.654;10.014;2022-10-16T05:22:19;12.30;99.90
46508;DHT22;32223;53.654;10.014;2022-10-16T05:24:45;12.30;99.90
46508;DHT22;32223;53.654;10.014;2022-10-16T05:27:10;12.30;99.90
46508;DHT22;32223;53.654;10.014;2022-10-16T05:29:36;12.30;99.90
46508;DHT22;32223;53.654;10.014;2022-10-16T05:32:02;12.30;99.90
46508;DHT22;32223;53.654;10.014;2022-10-16T05:34:27;12.30;99.90
46508;DHT22;32223;53.654;10.014;2022-10-16T05:36:53;12.40;99.90
46508;DHT22;32223;53.654;10.014;2022-10-16T05:39:18;12.40;99.90
46508;DHT22;32223;53.654;10.014;2022-10-16T05:41:44;12.40;99.90
46508;DHT22;32223;53.654;10.014;2022-10-16T05:44:10;12.50;99.90
46508;DHT22;32223;53.654;10.014;2022-10-16T05:46:35;12.50;99.90
46508;DHT22;32223;53.654;10.014;2022-10-16T05:49:01;12.50;99.90
46508;DHT22;32223;53.654;10.014;2022-10-16T05:51:26;12.60;99.90
46508;DHT22;32223;53.654;10.014;2022-10-16T05:53:52;12.60;99.90
46508;DHT22;32223;53.654;10.014;2022-10-16T05:56:17;12.60;99.90
46508;DHT22;32223;53.654;10.014;2022-10-16T05:58:43;12.60;99.90
46508;DHT22;32223;53.654;10.014;2022-10-16T06:01:10;12.60;99.90
46508;DHT22;32223;53.654;10.014;2022-10-16T06:03:36;12.60;99.90
46508;DHT22;32223;53.654;10.014;2022-10-16T06:06:15;12.70;99.90
46508;DHT22;32223;53.654;10.014;2022-10-16T06:08:41;12.70;99.90
46508;DHT22;32223;53.654;10.014;2022-10-16T06:11:07;12.70;99.90
46508;DHT22;32223;53.654;10.014;2022-10-16T06:13:33;12.80;99.90
46508;DHT22;32223;53.654;10.014;2022-10-16T06:15:59;12.80;99.90
46508;DHT22;32223;53.654;10.014;2022-10-16T06:18:25;12.80;99.90
46508;DHT22;32223;53.654;10.014;2022-10-16T06:20:51;12.80;99.90
46508;DHT22;32223;53.654;10.014;2022-10-16T06:23:17;12.80;99.90
46508;DHT22;32223;53.654;10.014;2022-10-16T06:25:42;12.90;99.90
46508;DHT22;32223;53.654;10.014;2022-10-16T06:28:07;12.90;99.90
46508;DHT22;32223;53.654;10.014;2022-10-16T06:30:33;12.90;99.90
46508;DHT22;32223;53.654;10.014;2022-10-16T06:32:58;12.90;99.90
46508;DHT22;32223;53.654;10.014;2022-10-16T06:35:24;13.00;99.90
46508;DHT22;32223;53.654;10.014;2022-10-16T06:37:49;13.00;99.90
46508;DHT22;32223;53.654;10.014;2022-10-16T06:40:15;13.00;99.90
46508;DHT22;32223;53.654;10.014;2022-10-16T06:42:41;13.00;99.90
46508;DHT22;32223;53.654;10.014;2022-10-16T06:45:06;13.10;99.90
46508;DHT22;32223;53.654;10.014;2022-10-16T06:47:32;13.10;99.90
46508;DHT22;32223;53.654;10.014;2022-10-16T06:49:57;13.20;99.90
46508;DHT22;32223;53.654;10.014;2022-10-16T06:52:23;13.20;99.90
46508;DHT22;32223;53.654;10.014;2022-10-16T06:54:49;13.30;99.90
46508;DHT22;32223;53.654;10.014;2022-10-16T06:57:15;13.30;99.90
46508;DHT22;32223;53.654;10.014;2022-10-16T06:59:40;13.40;99.90
46508;DHT22;32223;53.654;10.014;2022-10-16T07:02:07;13.50;99.90
46508;DHT22;32223;53.654;10.014;2022-10-16T07:04:33;13.60;99.90
46508;DHT22;32223;53.654;10.014;2022-10-16T07:07:00;13.80;99.90
46508;DHT22;32223;53.654;10.014;2022-10-16T07:09:25;13.90;99.90
46508;DHT22;32223;53.654;10.014;2022-10-16T07:11:51;14.00;99.90
46508;DHT22;32223;53.654;10.014;2022-10-16T07:14:18;14.20;99.90
46508;DHT22;32223;53.654;10.014;2022-10-16T07:16:43;14.20;99.90
46508;DHT22;32223;53.654;10.014;2022-10-16T07:19:09;14.30;99.90
46508;DHT22;32223;53.654;10.014;2022-10-16T07:21:36;14.40;99.90
46508;DHT22;32223;53.654;10.014;2022-10-16T07:24:02;14.50;99.90
46508;DHT22;32223;53.654;10.014;2022-10-16T07:26:29;14.50;99.90
46508;DHT22;32223;53.654;10.014;2022-10-16T07:28:55;14.50;99.90
46508;DHT22;32223;53.654;10.014;2022-10-16T07:31:22;14.50;99.90
46508;DHT22;32223;53.654;10.014;2022-10-16T07:33:47;14.50;99.90
46508;DHT22;32223;53.654;10.014;2022-10-16T07:36:14;14.50;99.90
46508;DHT22;32223;53.654;10.014;2022-10-16T07:38:39;14.50;99.90
46508;DHT22;32223;53.654;10.014;2022-10-16T07:41:06;14.50;99.90
46508;DHT22;32223;53.654;10.014;2022-10-16T07:43:32;14.50;99.90
46508;DHT22;32223;53.654;10.014;2022-10-16T07:45:57;14.60;99.90
46508;DHT22;32223;53.654;10.014;2022-10-16T07:48:23;14.70;99.90
46508;DHT22;32223;53.654;10.014;2022-10-16T07:50:49;15.10;99.90
46508;DHT22;32223;53.654;10.014;2022-10-16T07:53:15;15.40;99.90
46508;DHT22;32223;53.654;10.014;2022-10-16T07:55:41;15.30;99.90
46508;DHT22;32223;53.654;10.014;2022-10-16T07:58:07;15.30;99.90
46508;DHT22;32223;53.654;10.014;2022-10-16T08:00:32;15.10;99.90
46508;DHT22;32223;53.654;10.014;2022-10-16T08:02:58;15.10;99.90
46508;DHT22;32223;53.654;10.014;2022-10-16T08:05:27;15.00;99.90
46508;DHT22;32223;53.654;10.014;2022-10-16T08:07:53;14.90;99.90
46508;DHT22;32223;53.654;10.014;2022-10-16T08:10:19;14.80;99.90
46508;DHT22;32223;53.654;10.014;2022-10-16T08:12:45;14.70;99.90
46508;DHT22;32223;53.654;10.014;2022-10-16T08:15:11;14.80;99.90
46508;DHT22;32223;53.654;10.014;2022-10-16T08:17:37;14.70;99.90
46508;DHT22;32223;53.654;10.014;2022-10-16T08:20:02;14.70;99.90
46508;DHT22;32223;53.654;10.014;2022-10-16T08:22:28;14.70;99.90
46508;DHT22;32223;53.654;10.014;2022-10-16T08:24:54;14.80;99.90
46508;DHT22;32223;53.654;10.014;2022-10-16T08:27:19;14.80;99.90
46508;DHT22;32223;53.654;10.014;2022-10-16T08:29:45;14.80;99.90
46508;DHT22;32223;53.654;10.014;2022-10-16T08:32:10;14.80;99.90
46508;DHT22;32223;53.654;10.014;2022-10-16T08:34:36;14.80;99.90
46508;DHT22;32223;53.654;10.014;2022-10-16T08:37:01;14.90;99.90
46508;DHT22;32223;53.654;10.014;2022-10-16T08:39:27;14.90;99.90
46508;DHT22;32223;53.654;10.014;2022-10-16T08:46:59;14.90;99.90
46508;DHT22;32223;53.654;10.014;2022-10-16T08:49:27;14.90;99.90
46508;DHT22;32223;53.654;10.014;2022-10-16T08:51:54;14.80;99.90
46508;DHT22;32223;53.654;10.014;2022-10-16T08:54:24;14.80;99.90
46508;DHT22;32223;53.654;10.014;2022-10-16T08:56:56;14.80;99.90
46508;DHT22;32223;53.654;10.014;2022-10-16T08:59:22;14.70;99.90
46508;DHT22;32223;53.654;10.014;2022-10-16T09:01:49;14.70;99.90
46508;DHT22;32223;53.654;10.014;2022-10-16T09:12:08;15.20;99.90
46508;DHT22;32223;53.654;10.014;2022-10-16T09:14:40;15.30;99.90
46508;DHT22;32223;53.654;10.014;2022-10-16T09:19:44;15.40;99.90
46508;DHT22;32223;53.654;10.014;2022-10-16T09:22:15;15.50;99.90
46508;DHT22;32223;53.654;10.014;2022-10-16T09:24:41;15.60;99.90
46508;DHT22;32223;53.654;10.014;2022-10-16T09:27:09;15.70;99.90
46508;DHT22;32223;53.654;10.014;2022-10-16T09:29:35;15.80;99.90
46508;DHT22;32223;53.654;10.014;2022-10-16T09:32:07;15.70;99.90
46508;DHT22;32223;53.654;10.014;2022-10-16T09:34:36;15.70;99.90
46508;DHT22;32223;53.654;10.014;2022-10-16T09:37:05;15.70;99.90
46508;DHT22;32223;53.654;10.014;2022-10-16T09:42:33;15.70;99.90
46508;DHT22;32223;53.654;10.014;2022-10-16T09:44:59;15.80;99.90
46508;DHT22;32223;53.654;10.014;2022-10-16T09:47:25;15.90;99.90
46508;DHT22;32223;53.654;10.014;2022-10-16T09:49:52;16.00;99.90
46508;DHT22;32223;53.654;10.014;2022-10-16T09:52:18;16.10;99.90
46508;DHT22;32223;53.654;10.014;2022-10-16T09:54:51;16.20;99.90
46508;DHT22;32223;53.654;10.014;2022-10-16T09:57:17;16.30;99.90
46508;DHT22;32223;53.654;10.014;2022-10-16T09:59:46;16.40;99.90
46508;DHT22;32223;53.654;10.014;2022-10-16T10:02:12;16.40;99.90
46508;DHT22;32223;53.654;10.014;2022-10-16T10:04:40;16.50;99.90
46508;DHT22;32223;53.654;10.014;2022-10-16T10:07:06;16.60;99.90
46508;DHT22;32223;53.654;10.014;2022-10-16T10:09:42;16.60;99.90
46508;DHT22;32223;53.654;10.014;2022-10-16T10:12:19;16.70;99.90
46508;DHT22;32223;53.654;10.014;2022-10-16T10:14:52;16.70;99.90
46508;DHT22;32223;53.654;10.014;2022-10-16T10:22:19;16.90;99.90
46508;DHT22;32223;53.654;10.014;2022-10-16T10:27:33;17.10;99.90
46508;DHT22;32223;53.654;10.014;2022-10-16T10:30:01;17.00;99.90
46508;DHT22;32223;53.654;10.014;2022-10-16T10:32:38;17.10;99.90
46508;DHT22;32223;53.654;10.014;2022-10-16T10:35:17;17.10;99.90
46508;DHT22;32223;53.654;10.014;2022-10-16T10:40:39;17.20;99.90
46508;DHT22;32223;53.654;10.014;2022-10-16T10:45:44;17.60;99.90
46508;DHT22;32223;53.654;10.014;2022-10-16T10:53:16;17.90;99.90
46508;DHT22;32223;53.654;10.014;2022-10-16T11:00:57;17.70;99.90
46508;DHT22;32223;53.654;10.014;2022-10-16T11:05:56;17.80;99.90
46508;DHT22;32223;53.654;10.014;2022-10-16T11:08:38;17.80;99.90
46508;DHT22;32223;53.654;10.014;2022-10-16T11:11:07;17.90;99.90
46508;DHT22;32223;53.654;10.014;2022-10-16T11:18:52;18.00;99.90
46508;DHT22;32223;53.654;10.014;2022-10-16T11:21:20;18.10;99.90
46508;DHT22;32223;53.654;10.014;2022-10-16T11:24:00;18.10;99.90
46508;DHT22;32223;53.654;10.014;2022-10-16T11:26:28;18.20;99.90
46508;DHT22;32223;53.654;10.014;2022-10-16T11:28:56;18.40;99.90
46508;DHT22;32223;53.654;10.014;2022-10-16T11:31:24;18.40;99.90
46508;DHT22;32223;53.654;10.014;2022-10-16T11:33:52;18.40;99.90
46508;DHT22;32223;53.654;10.014;2022-10-16T11:36:39;18.30;99.90
46508;DHT22;32223;53.654;10.014;2022-10-16T11:41:37;18.60;99.90
46508;DHT22;32223;53.654;10.014;2022-10-16T11:46:52;18.30;99.90
46508;DHT22;32223;53.654;10.014;2022-10-16T11:49:24;18.60;99.90
46508;DHT22;32223;53.654;10.014;2022-10-16T11:51:56;18.70;99.90
46508;DHT22;32223;53.654;10.014;2022-10-16T11:54:28;19.00;99.90
46508;DHT22;32223;53.654;10.014;2022-10-16T11:56:59;19.20;99.90
46508;DHT22;32223;53.654;10.014;2022-10-16T12:01:53;19.50;99.90
46508;DHT22;32223;53.654;10.014;2022-10-16T12:04:33;19.80;99.90
46508;DHT22;32223;53.654;10.014;2022-10-16T12:07:08;20.40;99.90
46508;DHT22;32223;53.654;10.014;2022-10-16T12:09:37;21.30;99.90
46508;DHT22;32223;53.654;10.014;2022-10-16T12:12:03;22.10;99.90
46508;DHT22;32223;53.654;10.014;2022-10-16T12:16:55;22.90;99.90
46508;DHT22;32223;53.654;10.014;2022-10-16T12:19:21;22.90;99.90
46508;DHT22;32223;53.654;10.014;2022-10-16T12:21:48;22.30;99.90
46508;DHT22;32223;53.654;10.014;2022-10-16T12:26:49;21.30;99.90
46508;DHT22;32223;53.654;10.014;2022-10-16T12:31:45;21.40;99.90
46508;DHT22;32223;53.654;10.014;2022-10-16T12:39:38;23.30;99.90
46508;DHT22;32223;53.654;10.014;2022-10-16T12:42:04;23.70;99.90
46508;DHT22;32223;53.654;10.014;2022-10-16T12:44:34;24.10;99.90
46508;DHT22;32223;53.654;10.014;2022-10-16T12:47:00;23.90;99.90
46508;DHT22;32223;53.654;10.014;2022-10-16T12:49:30;23.90;99.90
46508;DHT22;32223;53.654;10.014;2022-10-16T12:51:56;24.50;99.90
46508;DHT22;32223;53.654;10.014;2022-10-16T13:10:00;23.70;99.00
46508;DHT22;32223;53.654;10.014;2022-10-16T13:25:14;21.50;99.90
46508;DHT22;32223;53.654;10.014;2022-10-16T13:30:28;20.20;99.90
46508;DHT22;32223;53.654;10.014;2022-10-16T13:35:24;20.90;99.90
46508;DHT22;32223;53.654;10.014;2022-10-16T13:37:50;22.30;99.90
46508;DHT22;32223;53.654;10.014;2022-10-16T13:40:21;23.40;99.90
46508;DHT22;32223;53.654;10.014;2022-10-16T13:42:46;24.20;99.90
46508;DHT22;32223;53.654;10.014;2022-10-16T13:45:22;25.40;98.70
46508;DHT22;32223;53.654;10.014;2022-10-16T13:47:49;26.20;96.80
46508;DHT22;32223;53.654;10.014;2022-10-16T13:50:18;26.80;94.70
46508;DHT22;32223;53.654;10.014;2022-10-16T13:52:44;27.30;93.60
46508;DHT22;32223;53.654;10.014;2022-10-16T13:55:17;27.30;92.90
46508;DHT22;32223;53.654;10.014;2022-10-16T13:57:42;27.60;91.70
46508;DHT22;32223;53.654;10.014;2022-10-16T14:00:18;27.20;91.40
46508;DHT22;32223;53.654;10.014;2022-10-16T14:02:44;26.80;90.60
46508;DHT22;32223;53.654;10.014;2022-10-16T14:05:10;26.20;90.10
46508;DHT22;32223;53.654;10.014;2022-10-16T14:07:35;25.90;89.30
46508;DHT22;32223;53.654;10.014;2022-10-16T14:10:03;25.90;90.00
46508;DHT22;32223;53.654;10.014;2022-10-16T14:12:29;26.00;89.80
46508;DHT22;32223;53.654;10.014;2022-10-16T14:14:55;25.80;88.80
46508;DHT22;32223;53.654;10.014;2022-10-16T14:17:23;24.70;89.80
46508;DHT22;32223;53.654;10.014;2022-10-16T14:19:50;23.80;91.20
46508;DHT22;32223;53.654;10.014;2022-10-16T14:24:54;23.50;92.40
46508;DHT22;32223;53.654;10.014;2022-10-16T14:27:26;23.10;92.90
46508;DHT22;32223;53.654;10.014;2022-10-16T14:30:05;22.60;93.60
46508;DHT22;32223;53.654;10.014;2022-10-16T14:32:33;22.30;94.20
46508;DHT22;32223;53.654;10.014;2022-10-16T14:34:59;22.00;94.90
46508;DHT22;32223;53.654;10.014;2022-10-16T14:37:28;21.50;95.70
46508;DHT22;32223;53.654;10.014;2022-10-16T14:39:54;21.40;96.50
46508;DHT22;32223;53.654;10.014;2022-10-16T14:42:20;21.30;96.80
46508;DHT22;32223;53.654;10.014;2022-10-16T14:44:49;21.00;97.10
46508;DHT22;32223;53.654;10.014;2022-10-16T14:47:18;20.40;98.00
46508;DHT22;32223;53.654;10.014;2022-10-16T14:49:47;20.20;98.90
46508;DHT22;32223;53.654;10.014;2022-10-16T14:52:13;20.60;99.00
46508;DHT22;32223;53.654;10.014;2022-10-16T14:54:39;21.40;97.90
46508;DHT22;32223;53.654;10.014;2022-10-16T14:57:05;22.10;97.60
46508;DHT22;32223;53.654;10.014;2022-10-16T15:01:56;21.50;96.90
46508;DHT22;32223;53.654;10.014;2022-10-16T15:04:22;20.90;97.70
46508;DHT22;32223;53.654;10.014;2022-10-16T15:06:47;20.30;98.80
46508;DHT22;32223;53.654;10.014;2022-10-16T15:09:13;19.70;99.90
46508;DHT22;32223;53.654;10.014;2022-10-16T15:11:38;19.20;99.90
46508;DHT22;32223;53.654;10.014;2022-10-16T15:14:04;18.80;99.90
46508;DHT22;32223;53.654;10.014;2022-10-16T15:16:30;18.50;99.90
46508;DHT22;32223;53.654;10.014;2022-10-16T15:18:55;18.20;99.90
46508;DHT22;32223;53.654;10.014;2022-10-16T15:21:25;18.00;99.90
46508;DHT22;32223;53.654;10.014;2022-10-16T15:23:51;17.80;99.90
46508;DHT22;32223;53.654;10.014;2022-10-16T15:26:17;17.60;99.90
46508;DHT22;32223;53.654;10.014;2022-10-16T15:28:42;17.40;99.90
46508;DHT22;32223;53.654;10.014;2022-10-16T15:31:08;17.30;99.90
46508;DHT22;32223;53.654;10.014;2022-10-16T15:33:33;17.30;99.90
46508;DHT22;32223;53.654;10.014;2022-10-16T15:36:00;17.10;99.90
46508;DHT22;32223;53.654;10.014;2022-10-16T15:38:26;17.00;99.90
46508;DHT22;32223;53.654;10.014;2022-10-16T15:40:51;16.90;99.90
46508;DHT22;32223;53.654;10.014;2022-10-16T15:43:17;16.80;99.90
46508;DHT22;32223;53.654;10.014;2022-10-16T15:45:44;16.70;99.90
46508;DHT22;32223;53.654;10.014;2022-10-16T15:48:12;16.60;99.90
46508;DHT22;32223;53.654;10.014;2022-10-16T15:50:39;16.50;99.90
46508;DHT22;32223;53.654;10.014;2022-10-16T15:53:04;16.30;99.90
46508;DHT22;32223;53.654;10.014;2022-10-16T15:55:30;16.20;99.90
46508;DHT22;32223;53.654;10.014;2022-10-16T15:57:55;16.10;99.90
46508;DHT22;32223;53.654;10.014;2022-10-16T16:00:21;16.00;99.90
46508;DHT22;32223;53.654;10.014;2022-10-16T16:02:53;15.90;99.90
46508;DHT22;32223;53.654;10.014;2022-10-16T16:05:19;15.80;99.90
46508;DHT22;32223;53.654;10.014;2022-10-16T16:07:45;15.70;99.90
46508;DHT22;32223;53.654;10.014;2022-10-16T16:10:10;15.70;99.90
46508;DHT22;32223;53.654;10.014;2022-10-16T16:12:36;15.60;99.90
46508;DHT22;32223;53.654;10.014;2022-10-16T16:15:03;15.50;99.90
46508;DHT22;32223;53.654;10.014;2022-10-16T16:17:29;15.40;99.90
46508;DHT22;32223;53.654;10.014;2022-10-16T16:19:55;15.30;99.90
46508;DHT22;32223;53.654;10.014;2022-10-16T16:22:20;15.20;99.90
46508;DHT22;32223;53.654;10.014;2022-10-16T16:24:46;15.10;99.90
46508;DHT22;32223;53.654;10.014;2022-10-16T16:27:11;15.00;99.90
46508;DHT22;32223;53.654;10.014;2022-10-16T16:29:39;14.90;99.90
46508;DHT22;32223;53.654;10.014;2022-10-16T16:32:05;14.80;99.90
46508;DHT22;32223;53.654;10.014;2022-10-16T16:34:31;14.70;99.90
46508;DHT22;32223;53.654;10.014;2022-10-16T16:36:57;14.70;99.90
46508;DHT22;32223;53.654;10.014;2022-10-16T16:39:22;14.60;99.90
46508;DHT22;32223;53.654;10.014;2022-10-16T16:41:48;14.60;99.90
46508;DHT22;32223;53.654;10.014;2022-10-16T16:44:14;14.60;99.90
46508;DHT22;32223;53.654;10.014;2022-10-16T16:46:40;14.50;99.90
46508;DHT22;32223;53.654;10.014;2022-10-16T16:49:07;14.50;99.90
46508;DHT22;32223;53.654;10.014;2022-10-16T16:51:32;14.40;99.90
46508;DHT22;32223;53.654;10.014;2022-10-16T16:53:58;14.40;99.90
46508;DHT22;32223;53.654;10.014;2022-10-16T16:56:24;14.30;99.90
46508;DHT22;32223;53.654;10.014;2022-10-16T16:58:51;14.30;99.90
46508;DHT22;32223;53.654;10.014;2022-10-16T17:01:16;14.20;99.90
46508;DHT22;32223;53.654;10.014;2022-10-16T17:03:43;14.10;99.90
46508;DHT22;32223;53.654;10.014;2022-10-16T17:06:12;14.10;99.90
46508;DHT22;32223;53.654;10.014;2022-10-16T17:08:38;14.10;99.90
46508;DHT22;32223;53.654;10.014;2022-10-16T17:11:04;14.00;99.90
46508;DHT22;32223;53.654;10.014;2022-10-16T17:13:31;13.90;99.90